createdAt,value
2022-10-09T00:01:20.762Z,12.70
2022-10-09T00:03:51.093Z,12.70
2022-10-09T00:06:22.205Z,12.80
2022-10-09T00:08:50.578Z,12.80
2022-10-09T00:11:22.081Z,12.70
2022-10-09T00:13:51.090Z,12.70
2022-10-09T00:16:21.124Z,12.70
2022-10-09T00:18:49.348Z,12.70
2022-10-09T00:21:23.024Z,12.70
2022-10-09T00:23:52.533Z,12.60
2022-10-09T00:26:22.677Z,12.60
2022-10-09T00:28:51.573Z,12.50
2022-10-09T00:31:20.175Z,12.60
2022-10-09T00:33:48.353Z,12.60
2022-10-09T00:36:18.895Z,12.50
2022-10-09T00:38:47.026Z,12.40
2022-10-09T00:41:18.313Z,12.50
2022-10-09T00:43:50.419Z,12.60
2022-10-09T00:46:26.597Z,12.60
2022-10-09T00:49:01.839Z,12.50
2022-10-09T00:51:31.369Z,12.40
2022-10-09T00:54:01.962Z,12.50
2022-10-09T00:56:30.049Z,12.50
2022-10-09T00:59:18.243Z,12.60
2022-10-09T01:01:46.964Z,12.40
2022-10-09T01:04:15.419Z,12.30
2022-10-09T01:06:57.700Z,12.30
2022-10-09T01:09:33.062Z,12.40
2022-10-09T01:12:07.972Z,12.30
2022-10-09T01:14:45.468Z,12.40
2022-10-09T01:17:21.808Z,12.40
2022-10-09T01:20:01.983Z,12.30
2022-10-09T01:22:40.168Z,12.20
2022-10-09T01:25:11.950Z,12.20
2022-10-09T01:27:42.099Z,12.20
2022-10-09T01:30:13.480Z,12.40
2022-10-09T01:32:47.284Z,12.30
2022-10-09T01:35:16.778Z,12.30
2022-10-09T01:37:47.690Z,12.10
2022-10-09T01:40:18.033Z,12.20
2022-10-09T01:42:47.732Z,12.20
2022-10-09T01:45:16.979Z,12.30
2022-10-09T01:47:45.260Z,12.30
2022-10-09T01:50:23.718Z,12.10
2022-10-09T01:52:54.553Z,12.10
2022-10-09T01:55:33.608Z,12.00
2022-10-09T01:58:08.298Z,12.00
2022-10-09T02:00:40.784Z,12.00
2022-10-09T02:03:12.157Z,12.10
2022-10-09T02:05:41.916Z,12.20
2022-10-09T02:08:13.212Z,12.10
2022-10-09T02:10:42.232Z,12.20
2022-10-09T02:13:12.506Z,12.20
2022-10-09T02:15:47.658Z,12.20
2022-10-09T02:18:20.598Z,12.00
2022-10-09T02:20:55.499Z,12.00
2022-10-09T02:23:25.687Z,11.90
2022-10-09T02:25:54.740Z,12.00
2022-10-09T02:28:24.262Z,11.90
2022-10-09T02:30:57.587Z,12.00
2022-10-09T02:33:32.251Z,12.00
2022-10-09T02:36:00.801Z,12.00
2022-10-09T02:38:28.955Z,11.90
2022-10-09T02:40:59.197Z,11.80
2022-10-09T02:43:29.135Z,11.90
2022-10-09T02:45:57.159Z,11.90
2022-10-09T02:48:25.306Z,11.80
2022-10-09T02:50:53.328Z,11.90
2022-10-09T02:53:21.423Z,11.90
2022-10-09T02:55:49.447Z,11.90
2022-10-09T02:58:17.466Z,11.90
2022-10-09T03:00:49.245Z,12.00
2022-10-09T03:03:17.453Z,11.80
2022-10-09T03:05:45.908Z,11.80
2022-10-09T03:08:14.080Z,11.70
2022-10-09T03:10:42.258Z,11.70
2022-10-09T03:13:10.659Z,12.00
2022-10-09T03:15:38.983Z,11.80
2022-10-09T03:18:08.401Z,11.70
2022-10-09T03:20:36.442Z,11.70
2022-10-09T03:23:04.500Z,11.70
2022-10-09T03:25:32.655Z,11.70
2022-10-09T03:28:00.702Z,11.70
2022-10-09T03:30:28.826Z,11.80
2022-10-09T03:32:56.938Z,11.90
2022-10-09T03:35:26.468Z,11.80
2022-10-09T03:37:54.791Z,11.90
2022-10-09T03:40:22.833Z,11.90
2022-10-09T03:42:51.253Z,11.90
2022-10-09T03:45:19.535Z,12.00
2022-10-09T03:47:47.580Z,11.80
2022-10-09T03:50:15.764Z,12.00
2022-10-09T03:52:45.147Z,12.00
2022-10-09T03:55:13.216Z,12.00
2022-10-09T03:57:41.361Z,11.80
2022-10-09T04:00:10.992Z,11.80
2022-10-09T04:02:39.151Z,11.80
2022-10-09T04:05:08.328Z,11.80
2022-10-09T04:07:36.469Z,11.70
2022-10-09T04:10:06.797Z,11.70
2022-10-09T04:12:34.996Z,11.60
2022-10-09T04:15:03.331Z,11.80
2022-10-09T04:17:32.168Z,11.90
2022-10-09T04:20:00.256Z,11.70
2022-10-09T04:22:28.718Z,11.70
2022-10-09T04:24:56.762Z,11.60
2022-10-09T04:27:26.599Z,11.50
2022-10-09T04:29:54.680Z,11.40
2022-10-09T04:32:22.767Z,11.40
2022-10-09T04:34:50.866Z,11.50
2022-10-09T04:37:18.977Z,11.60
2022-10-09T04:39:47.141Z,11.60
2022-10-09T04:42:15.184Z,11.60
2022-10-09T04:44:44.612Z,11.60
2022-10-09T04:47:12.629Z,11.40
2022-10-09T04:49:40.800Z,11.50
2022-10-09T04:52:08.831Z,11.50
2022-10-09T04:54:36.892Z,11.50
2022-10-09T04:57:05.079Z,11.40
2022-10-09T04:59:33.114Z,11.60
2022-10-09T05:02:02.569Z,11.60
2022-10-09T05:04:30.734Z,11.60
2022-10-09T05:06:58.801Z,11.70
2022-10-09T05:09:26.885Z,11.70
2022-10-09T05:11:54.950Z,11.70
2022-10-09T05:14:23.124Z,11.70
2022-10-09T05:17:12.454Z,11.70
2022-10-09T05:19:42.296Z,11.50
2022-10-09T05:22:10.390Z,11.50
2022-10-09T05:24:38.554Z,11.50
2022-10-09T05:27:06.696Z,11.50
2022-10-09T05:29:34.757Z,11.70
2022-10-09T05:32:02.930Z,11.70
2022-10-09T05:34:31.147Z,11.60
2022-10-09T05:37:00.517Z,11.70
2022-10-09T05:39:29.314Z,11.60
2022-10-09T05:41:57.324Z,11.60
2022-10-09T05:44:25.676Z,11.50
2022-10-09T05:46:53.713Z,11.40
2022-10-09T05:49:21.747Z,11.50
2022-10-09T05:51:50.551Z,11.60
2022-10-09T05:54:20.007Z,11.50
2022-10-09T05:56:48.402Z,11.50
2022-10-09T05:59:19.575Z,11.60
2022-10-09T06:01:49.719Z,11.60
2022-10-09T06:04:19.976Z,11.60
2022-10-09T06:06:49.094Z,11.70
2022-10-09T06:09:20.067Z,11.70
2022-10-09T06:11:48.283Z,11.40
2022-10-09T06:14:16.375Z,11.50
2022-10-09T06:16:46.387Z,11.50
2022-10-09T06:19:16.844Z,11.50
2022-10-09T06:21:47.099Z,11.60
2022-10-09T06:24:24.470Z,11.60
2022-10-09T06:26:56.435Z,11.60
2022-10-09T06:29:24.657Z,11.70
2022-10-09T06:31:52.789Z,11.70
2022-10-09T06:34:20.946Z,11.70
2022-10-09T06:36:49.157Z,11.80
2022-10-09T06:39:18.843Z,11.80
2022-10-09T06:41:46.995Z,11.90
2022-10-09T06:44:31.572Z,11.90
2022-10-09T06:46:59.833Z,11.90
2022-10-09T06:49:28.139Z,11.90
2022-10-09T06:51:56.282Z,11.90
2022-10-09T06:54:25.791Z,12.00
2022-10-09T06:56:55.478Z,12.00
2022-10-09T06:59:23.737Z,12.70
2022-10-09T07:01:51.911Z,12.00
2022-10-09T07:04:21.596Z,12.10
2022-10-09T07:06:49.792Z,12.20
2022-10-09T07:09:18.391Z,12.30
2022-10-09T07:11:49.679Z,12.30
2022-10-09T07:14:18.603Z,12.40
2022-10-09T07:16:49.653Z,12.40
2022-10-09T07:19:19.199Z,12.50
2022-10-09T07:21:49.687Z,12.60
2022-10-09T07:24:20.336Z,12.70
2022-10-09T07:26:50.015Z,12.80
2022-10-09T07:29:19.481Z,12.90
2022-10-09T07:31:47.851Z,13.00
2022-10-09T07:34:15.935Z,13.00
2022-10-09T07:36:43.960Z,13.10
2022-10-09T07:39:11.999Z,13.10
2022-10-09T07:41:40.249Z,13.20
2022-10-09T07:44:10.228Z,13.10
2022-10-09T07:46:38.851Z,13.20
2022-10-09T07:49:07.047Z,13.30
2022-10-09T07:51:35.081Z,13.40
2022-10-09T07:54:03.447Z,13.50
2022-10-09T07:56:33.635Z,13.50
2022-10-09T07:59:03.779Z,13.60
2022-10-09T08:01:35.817Z,13.50
2022-10-09T08:04:04.623Z,13.70
2022-10-09T08:06:33.322Z,13.80
2022-10-09T08:09:03.293Z,13.90
2022-10-09T08:11:31.761Z,13.90
2022-10-09T08:14:00.607Z,14.00
2022-10-09T08:16:29.528Z,14.10
2022-10-09T08:19:00.506Z,14.20
2022-10-09T08:21:29.154Z,14.30
2022-10-09T08:23:58.948Z,14.30
2022-10-09T08:26:28.701Z,14.30
2022-10-09T08:28:59.253Z,14.40
2022-10-09T08:31:28.726Z,14.40
2022-10-09T08:34:01.646Z,14.40
2022-10-09T08:36:30.563Z,14.50
2022-10-09T08:38:59.142Z,14.70
2022-10-09T08:41:42.163Z,14.60
2022-10-09T08:44:18.657Z,14.70
2022-10-09T08:47:06.693Z,14.70
2022-10-09T08:49:43.801Z,14.80
2022-10-09T08:52:20.751Z,14.90
2022-10-09T08:54:50.199Z,14.90
2022-10-09T08:57:19.200Z,14.90
2022-10-09T08:59:47.407Z,15.00
2022-10-09T09:02:30.509Z,15.10
2022-10-09T09:05:08.799Z,15.10
2022-10-09T09:07:46.987Z,15.10
2022-10-09T09:10:21.458Z,15.20
2022-10-09T09:12:55.017Z,15.20
2022-10-09T09:15:31.419Z,15.30
2022-10-09T09:18:15.479Z,15.30
2022-10-09T09:20:53.524Z,15.40
2022-10-09T09:23:27.333Z,15.40
2022-10-09T09:25:56.369Z,15.40
2022-10-09T09:28:28.604Z,15.40
2022-10-09T09:31:01.451Z,15.40
2022-10-09T09:33:41.043Z,15.40
2022-10-09T09:36:20.971Z,15.50
2022-10-09T09:39:35.106Z,15.50
2022-10-09T09:41:38.636Z,15.50
2022-10-09T09:44:08.571Z,15.50
2022-10-09T09:46:38.474Z,15.50
2022-10-09T09:49:16.803Z,15.50
2022-10-09T09:51:48.104Z,15.50
2022-10-09T09:54:19.714Z,15.50
2022-10-09T09:59:40.116Z,15.50
2022-10-09T10:02:14.075Z,15.50
2022-10-09T10:04:51.435Z,15.60
2022-10-09T10:07:31.616Z,15.60
2022-10-09T10:10:04.940Z,15.60
2022-10-09T10:12:33.224Z,15.60
2022-10-09T10:15:01.401Z,15.60
2022-10-09T10:17:32.127Z,15.60
2022-10-09T10:20:00.226Z,15.70
2022-10-09T10:22:30.973Z,15.80
2022-10-09T10:24:59.958Z,15.80
2022-10-09T10:27:34.733Z,15.70
2022-10-09T10:30:05.369Z,15.80
2022-10-09T10:32:36.005Z,15.80
2022-10-09T10:35:07.574Z,15.80
2022-10-09T10:37:46.436Z,15.80
2022-10-09T10:40:19.167Z,15.80
2022-10-09T10:42:58.759Z,15.80
2022-10-09T10:45:34.828Z,15.90
2022-10-09T10:48:04.906Z,15.90
2022-10-09T10:50:39.523Z,15.90
2022-10-09T10:53:20.478Z,15.90
2022-10-09T10:55:54.082Z,16.00
2022-10-09T10:58:29.609Z,16.00
2022-10-09T11:01:18.940Z,16.00
2022-10-09T11:04:12.585Z,16.00
2022-10-09T11:06:47.785Z,16.10
2022-10-09T11:09:25.132Z,16.00
2022-10-09T11:11:59.733Z,16.00
2022-10-09T11:14:39.398Z,16.00
2022-10-09T11:17:19.474Z,16.00
2022-10-09T11:20:03.832Z,16.10
2022-10-09T11:22:49.702Z,16.10
2022-10-09T11:25:34.661Z,16.10
2022-10-09T11:28:08.080Z,16.10
2022-10-09T11:30:44.106Z,16.90
2022-10-09T11:33:28.827Z,16.10
2022-10-09T11:36:02.652Z,16.10
2022-10-09T11:38:35.892Z,16.10
2022-10-09T11:41:07.477Z,16.10
2022-10-09T11:43:52.863Z,16.10
2022-10-09T11:46:33.077Z,16.10
2022-10-09T11:49:10.147Z,16.10
2022-10-09T11:51:45.623Z,16.00
2022-10-09T11:54:17.021Z,16.10
2022-10-09T11:56:56.955Z,16.10
2022-10-09T11:59:29.943Z,16.10
2022-10-09T12:01:59.304Z,16.10
2022-10-09T12:04:50.451Z,16.70
2022-10-09T12:07:32.653Z,16.10
2022-10-09T12:10:05.632Z,16.10
2022-10-09T12:12:37.737Z,16.10
2022-10-09T12:15:23.637Z,16.10
2022-10-09T12:17:52.091Z,16.10
2022-10-09T12:20:24.305Z,16.10
2022-10-09T12:23:21.660Z,16.10
2022-10-09T12:25:46.980Z,16.10
2022-10-09T12:28:26.964Z,16.10
2022-10-09T12:30:56.224Z,16.10
2022-10-09T12:33:34.855Z,16.20
2022-10-09T12:36:14.334Z,16.10
2022-10-09T12:38:47.224Z,16.10
2022-10-09T12:41:29.350Z,15.90
2022-10-09T12:44:01.271Z,16.90
2022-10-09T12:47:13.386Z,16.60
2022-10-09T12:50:07.834Z,16.60
2022-10-09T12:53:21.734Z,16.10
2022-10-09T12:56:13.678Z,16.10
2022-10-09T12:58:43.833Z,17.00
2022-10-09T13:01:20.661Z,16.10
2022-10-09T13:04:00.236Z,16.40
2022-10-09T13:06:37.835Z,16.10
2022-10-09T13:09:09.838Z,16.20
2022-10-09T13:11:50.938Z,16.10
2022-10-09T13:14:40.466Z,16.30
2022-10-09T13:17:25.613Z,16.10
2022-10-09T13:19:55.683Z,16.10
2022-10-09T13:22:26.263Z,16.10
2022-10-09T13:28:47.433Z,16.10
2022-10-09T13:31:54.983Z,17.00
2022-10-09T13:35:14.605Z,16.20
2022-10-09T13:38:18.380Z,16.10
2022-10-09T13:51:54.409Z,16.20
2022-10-09T13:54:42.333Z,16.20
2022-10-09T13:57:58.001Z,16.20
2022-10-09T14:01:13.673Z,16.60
2022-10-09T14:03:53.822Z,16.20
2022-10-09T14:06:51.442Z,16.30
2022-10-09T14:09:19.740Z,17.00
2022-10-09T14:11:47.928Z,16.70
2022-10-09T14:14:16.328Z,16.20
2022-10-09T14:16:44.632Z,16.20
2022-10-09T14:19:12.818Z,16.20
2022-10-09T14:21:41.067Z,16.20
2022-10-09T14:24:11.425Z,16.20
2022-10-09T14:26:39.593Z,16.20
2022-10-09T14:29:07.676Z,16.20
2022-10-09T14:31:35.978Z,16.20
2022-10-09T14:34:04.116Z,16.20
2022-10-09T14:36:32.560Z,16.20
2022-10-09T14:39:01.402Z,16.10
2022-10-09T14:41:35.484Z,16.20
2022-10-09T14:44:06.076Z,16.20
2022-10-09T14:46:37.499Z,16.20
2022-10-09T14:49:08.430Z,16.20
2022-10-09T14:51:38.924Z,16.20
2022-10-09T14:54:08.467Z,16.20
2022-10-09T14:56:38.365Z,16.10
2022-10-09T14:59:07.395Z,16.20
2022-10-09T15:01:36.804Z,16.20
2022-10-09T15:04:06.495Z,16.20
2022-10-09T15:06:35.494Z,16.80
2022-10-09T15:09:06.364Z,16.20
2022-10-09T15:11:36.012Z,16.20
2022-10-09T15:14:06.012Z,16.20
2022-10-09T15:16:34.495Z,16.20
2022-10-09T15:19:04.541Z,16.20
2022-10-09T15:21:34.469Z,16.10
2022-10-09T15:24:04.578Z,16.30
2022-10-09T15:26:34.074Z,16.30
2022-10-09T15:29:03.422Z,16.20
2022-10-09T15:31:34.688Z,16.30
2022-10-09T15:34:03.536Z,16.20
2022-10-09T15:36:35.100Z,16.20
2022-10-09T15:39:05.947Z,16.20
2022-10-09T15:41:35.877Z,16.20
2022-10-09T15:44:06.280Z,16.20
2022-10-09T15:46:36.173Z,16.20
2022-10-09T15:49:04.505Z,16.20
2022-10-09T15:51:33.349Z,16.10
2022-10-09T15:54:02.236Z,16.30
2022-10-09T15:56:34.884Z,16.20
2022-10-09T15:59:07.236Z,16.20
2022-10-09T16:01:36.720Z,16.30
2022-10-09T16:04:04.800Z,16.20
2022-10-09T16:06:32.906Z,16.20
2022-10-09T16:09:01.245Z,16.20
2022-10-09T16:11:29.434Z,16.90
2022-10-09T16:13:59.087Z,16.30
2022-10-09T16:16:28.690Z,16.10
2022-10-09T16:18:58.545Z,15.90
2022-10-09T16:21:29.770Z,15.90
2022-10-09T16:31:40.179Z,15.70
2022-10-09T16:34:14.400Z,15.60
2022-10-09T16:36:42.822Z,15.60
2022-10-09T16:39:13.370Z,15.60
2022-10-09T16:49:53.695Z,15.40
2022-10-09T16:52:22.164Z,15.40
2022-10-09T16:54:50.651Z,15.30
2022-10-09T16:57:19.525Z,15.20
2022-10-09T17:16:42.587Z,15.70
2022-10-09T17:19:15.830Z,15.00
2022-10-09T17:21:45.457Z,14.90
2022-10-09T17:24:27.275Z,14.80
2022-10-09T17:27:00.323Z,15.00
2022-10-09T17:29:29.493Z,14.90
2022-10-09T17:32:10.697Z,14.80
2022-10-09T17:34:46.128Z,14.70
2022-10-09T17:37:16.688Z,14.80
2022-10-09T17:39:52.372Z,14.80
2022-10-09T17:42:21.307Z,14.80
2022-10-09T17:44:53.234Z,14.70
2022-10-09T17:47:27.843Z,14.70
2022-10-09T17:50:04.481Z,14.60
2022-10-09T17:52:34.413Z,14.60
2022-10-09T17:55:09.599Z,14.60
2022-10-09T17:57:41.701Z,14.50
2022-10-09T18:00:21.955Z,14.50
2022-10-09T18:02:58.268Z,14.50
2022-10-09T18:05:29.625Z,14.50
2022-10-09T18:08:07.731Z,14.50
2022-10-09T18:10:45.775Z,14.60
2022-10-09T18:13:21.158Z,14.50
2022-10-09T18:16:09.788Z,14.50
2022-10-09T18:18:49.415Z,14.50
2022-10-09T18:21:21.429Z,14.30
2022-10-09T18:23:58.251Z,14.30
2022-10-09T18:26:32.085Z,14.30
2022-10-09T18:29:16.478Z,14.20
2022-10-09T18:31:45.849Z,14.20
2022-10-09T18:34:18.841Z,14.20
2022-10-09T18:36:51.061Z,14.30
2022-10-09T18:39:21.899Z,14.20
2022-10-09T18:41:53.714Z,14.20
2022-10-09T18:44:28.488Z,14.10
2022-10-09T18:47:01.072Z,14.10
2022-10-09T18:49:36.647Z,14.10
2022-10-09T18:52:17.134Z,14.20
2022-10-09T18:54:50.909Z,14.10
2022-10-09T18:57:24.193Z,14.10
2022-10-09T18:59:55.403Z,14.10
2022-10-09T19:02:41.234Z,14.10
2022-10-09T19:05:15.534Z,14.10
2022-10-09T19:08:05.185Z,14.10
2022-10-09T19:10:42.991Z,14.00
2022-10-09T19:13:21.273Z,14.00
2022-10-09T19:16:01.852Z,14.00
2022-10-09T19:18:34.670Z,14.00
2022-10-09T19:21:13.749Z,13.90
2022-10-09T19:23:53.702Z,14.00
2022-10-09T19:26:29.771Z,14.10
2022-10-09T19:29:08.143Z,14.00
2022-10-09T19:31:42.688Z,14.10
2022-10-09T19:34:17.056Z,13.90
2022-10-09T19:36:59.689Z,13.90
2022-10-09T19:39:32.361Z,13.90
2022-10-09T19:42:06.564Z,13.80
2022-10-09T19:44:45.083Z,13.80
2022-10-09T19:47:21.706Z,13.70
2022-10-09T19:49:54.463Z,13.80
2022-10-09T19:52:42.546Z,13.80
2022-10-09T19:55:21.246Z,13.70
2022-10-09T19:57:51.750Z,13.80
2022-10-09T20:00:26.126Z,13.80
2022-10-09T20:03:03.716Z,13.80
2022-10-09T20:05:43.892Z,13.60
2022-10-09T20:08:16.193Z,13.70
2022-10-09T20:10:48.336Z,13.60
2022-10-09T20:13:17.197Z,13.70
2022-10-09T20:15:55.960Z,13.70
2022-10-09T20:18:27.598Z,13.60
2022-10-09T20:20:57.970Z,13.60
2022-10-09T20:23:28.067Z,13.60
2022-10-09T20:26:46.770Z,13.60
2022-10-09T20:29:18.200Z,13.60
2022-10-09T20:31:49.377Z,13.50
2022-10-09T20:34:21.084Z,13.60
2022-10-09T20:36:54.147Z,13.60
2022-10-09T20:39:40.455Z,13.60
2022-10-09T20:42:13.191Z,13.60
2022-10-09T20:44:47.299Z,13.60
2022-10-09T20:47:26.702Z,13.60
2022-10-09T20:49:58.590Z,13.60
2022-10-09T20:52:29.460Z,13.60
2022-10-09T20:55:01.658Z,13.50
2022-10-09T20:57:34.984Z,13.40
2022-10-09T21:00:08.946Z,13.50
2022-10-09T21:02:45.331Z,13.40
2022-10-09T21:05:15.526Z,13.40
2022-10-09T21:07:53.586Z,13.50
2022-10-09T21:10:28.685Z,13.40
2022-10-09T21:13:02.775Z,13.40
2022-10-09T21:15:33.342Z,13.40
2022-10-09T21:18:05.981Z,13.40
2022-10-09T21:20:44.616Z,13.20
2022-10-09T21:23:18.210Z,13.10
2022-10-09T21:25:59.457Z,13.20
2022-10-09T21:28:37.614Z,13.20
2022-10-09T21:31:12.646Z,13.10
2022-10-09T21:33:43.853Z,13.00
2022-10-09T21:36:23.496Z,13.20
2022-10-09T21:38:57.201Z,13.10
2022-10-09T21:41:27.722Z,13.20
2022-10-09T21:44:11.050Z,13.20
2022-10-09T21:46:44.712Z,13.00
2022-10-09T21:49:27.953Z,13.00
2022-10-09T21:51:59.874Z,13.00
2022-10-09T21:54:36.238Z,13.10
2022-10-09T21:57:11.047Z,13.00
2022-10-09T21:59:42.349Z,13.10
2022-10-09T22:02:12.945Z,13.10
2022-10-09T22:04:42.275Z,12.90
2022-10-09T22:07:11.982Z,13.00
2022-10-09T22:09:43.179Z,13.00
2022-10-09T22:12:18.542Z,12.90
2022-10-09T22:14:49.354Z,13.10
2022-10-09T22:17:19.415Z,13.10
2022-10-09T22:20:02.072Z,13.10
2022-10-09T22:22:42.208Z,13.10
2022-10-09T22:25:21.898Z,13.10
2022-10-09T22:27:53.088Z,13.00
2022-10-09T22:30:22.562Z,13.10
2022-10-09T22:32:54.984Z,12.60
2022-10-09T22:35:39.269Z,13.00
2022-10-09T22:38:16.477Z,13.10
2022-10-09T22:40:48.823Z,13.10
2022-10-09T22:43:24.535Z,13.00
2022-10-09T22:45:57.859Z,13.00
2022-10-09T22:48:28.120Z,12.90
2022-10-09T22:50:57.365Z,12.90
2022-10-09T22:53:27.246Z,13.00
2022-10-09T22:55:58.180Z,13.10
2022-10-09T22:58:31.191Z,13.00
2022-10-09T23:01:11.274Z,13.00
2022-10-09T23:03:42.373Z,13.00
2022-10-09T23:06:18.810Z,12.90
2022-10-09T23:08:49.608Z,13.00
2022-10-09T23:11:22.680Z,13.00
2022-10-09T23:14:04.198Z,12.90
2022-10-09T23:16:36.339Z,13.00
2022-10-09T23:19:10.077Z,13.00
2022-10-09T23:21:46.920Z,12.90
2022-10-09T23:24:20.824Z,13.00
2022-10-09T23:26:52.835Z,12.90
2022-10-09T23:29:26.116Z,12.80
2022-10-09T23:31:55.160Z,12.90
2022-10-09T23:34:24.110Z,12.90
2022-10-09T23:36:53.946Z,12.90
2022-10-09T23:39:24.421Z,12.90
2022-10-09T23:41:52.926Z,12.70
2022-10-09T23:44:25.034Z,12.70
2022-10-09T23:46:55.370Z,12.80
2022-10-09T23:49:38.694Z,12.80
2022-10-09T23:52:08.208Z,12.80
2022-10-09T23:54:42.842Z,12.80
2022-10-09T23:57:19.995Z,12.80
